createdAt,value
2023-03-01T00:01:40.989Z,100.00
2023-03-01T00:04:08.467Z,100.00
2023-03-01T00:06:36.778Z,100.00
2023-03-01T00:09:05.008Z,100.00
2023-03-01T00:11:34.445Z,100.00
2023-03-01T00:14:03.479Z,100.00
2023-03-01T00:16:35.638Z,100.00
2023-03-01T00:19:03.734Z,100.00
2023-03-01T00:21:31.122Z,100.00
2023-03-01T00:23:59.302Z,100.00
2023-03-01T00:26:27.544Z,100.00
2023-03-01T00:28:58.592Z,100.00
2023-03-01T00:31:30.412Z,100.00
2023-03-01T00:34:04.729Z,100.00
2023-03-01T00:36:36.022Z,100.00
2023-03-01T00:39:05.906Z,100.00
2023-03-01T00:41:34.924Z,100.00
2023-03-01T00:44:03.185Z,100.00
2023-03-01T00:46:31.836Z,100.00
2023-03-01T00:48:59.758Z,100.00
2023-03-01T00:51:29.260Z,100.00
2023-03-01T00:54:01.572Z,100.00
2023-03-01T00:56:30.205Z,100.00
2023-03-01T00:58:57.725Z,100.00
2023-03-01T01:01:32.596Z,100.00
2023-03-01T01:04:06.384Z,100.00
2023-03-01T01:06:44.959Z,100.00
2023-03-01T01:09:19.691Z,100.00
2023-03-01T01:11:51.180Z,100.00
2023-03-01T01:14:19.534Z,100.00
2023-03-01T01:16:46.910Z,100.00
2023-03-01T01:19:14.698Z,100.00
2023-03-01T01:21:44.269Z,100.00
2023-03-01T01:24:12.358Z,100.00
2023-03-01T01:26:39.722Z,100.00
2023-03-01T01:29:08.000Z,100.00
2023-03-01T01:31:37.012Z,100.00
2023-03-01T01:34:07.037Z,100.00
2023-03-01T01:36:36.064Z,100.00
2023-03-01T01:39:04.356Z,100.00
2023-03-01T01:41:31.817Z,100.00
2023-03-01T01:44:24.574Z,100.00
2023-03-01T01:47:02.156Z,100.00
2023-03-01T01:49:44.690Z,100.00
2023-03-01T01:52:25.435Z,100.00
2023-03-01T01:55:01.258Z,100.00
2023-03-01T01:57:46.017Z,100.00
2023-03-01T02:00:22.578Z,100.00
2023-03-01T02:02:57.555Z,100.00
2023-03-01T02:05:56.702Z,100.00
2023-03-01T02:08:31.441Z,100.00
2023-03-01T02:11:00.808Z,100.00
2023-03-01T02:13:29.492Z,100.00
2023-03-01T02:15:57.133Z,100.00
2023-03-01T02:18:25.938Z,100.00
2023-03-01T02:21:46.256Z,100.00
2023-03-01T02:24:47.232Z,100.00
2023-03-01T02:27:14.766Z,100.00
2023-03-01T02:29:44.994Z,100.00
2023-03-01T02:32:13.437Z,100.00
2023-03-01T02:34:41.067Z,100.00
2023-03-01T02:37:21.564Z,100.00
2023-03-01T02:39:51.585Z,100.00
2023-03-01T02:42:27.436Z,100.00
2023-03-01T02:44:54.878Z,100.00
2023-03-01T02:47:22.181Z,100.00
2023-03-01T02:49:49.410Z,100.00
2023-03-01T02:52:42.132Z,100.00
2023-03-01T02:55:14.911Z,100.00
2023-03-01T02:57:45.752Z,100.00
2023-03-01T03:00:26.177Z,100.00
2023-03-01T03:02:55.360Z,100.00
2023-03-01T03:05:29.567Z,100.00
2023-03-01T03:08:00.868Z,100.00
2023-03-01T03:10:32.196Z,100.00
2023-03-01T03:13:12.020Z,100.00
2023-03-01T03:15:40.119Z,100.00
2023-03-01T03:18:11.921Z,100.00
2023-03-01T03:20:42.911Z,100.00
2023-03-01T03:23:10.501Z,100.00
2023-03-01T03:25:38.902Z,100.00
2023-03-01T03:28:10.956Z,100.00
2023-03-01T03:30:42.179Z,100.00
2023-03-01T03:33:13.657Z,100.00
2023-03-01T03:35:48.934Z,100.00
2023-03-01T03:38:22.936Z,100.00
2023-03-01T03:41:09.620Z,100.00
2023-03-01T03:43:39.499Z,100.00
2023-03-01T03:46:08.197Z,100.00
2023-03-01T03:48:42.230Z,100.00
2023-03-01T03:51:13.933Z,100.00
2023-03-01T03:53:41.770Z,100.00
2023-03-01T03:56:09.368Z,100.00
2023-03-01T03:58:37.430Z,100.00
2023-03-01T04:01:05.458Z,100.00
2023-03-01T04:03:36.028Z,100.00
2023-03-01T04:06:05.274Z,100.00
2023-03-01T04:08:33.138Z,100.00
2023-03-01T04:11:23.926Z,100.00
2023-03-01T04:13:52.284Z,100.00
2023-03-01T04:16:20.203Z,100.00
2023-03-01T04:18:48.590Z,100.00
2023-03-01T04:21:16.151Z,100.00
2023-03-01T04:23:43.884Z,100.00
2023-03-01T04:26:11.318Z,100.00
2023-03-01T04:28:44.015Z,100.00
2023-03-01T04:31:17.397Z,100.00
2023-03-01T04:33:53.750Z,100.00
2023-03-01T04:36:24.810Z,100.00
2023-03-01T04:38:53.117Z,100.00
2023-03-01T04:41:23.253Z,100.00
2023-03-01T04:43:50.936Z,100.00
2023-03-01T04:46:21.722Z,100.00
2023-03-01T04:48:49.938Z,100.00
2023-03-01T04:51:17.726Z,100.00
2023-03-01T04:53:45.835Z,100.00
2023-03-01T04:56:15.015Z,100.00
2023-03-01T04:58:43.096Z,100.00
2023-03-01T05:01:17.186Z,100.00
2023-03-01T05:03:46.523Z,100.00
2023-03-01T05:06:14.304Z,100.00
2023-03-01T05:08:42.667Z,100.00
2023-03-01T05:11:10.547Z,100.00
2023-03-01T05:13:40.298Z,100.00
2023-03-01T05:16:12.932Z,100.00
2023-03-01T05:18:41.535Z,100.00
2023-03-01T05:21:18.370Z,100.00
2023-03-01T05:23:47.909Z,100.00
2023-03-01T05:26:27.898Z,100.00
2023-03-01T05:29:00.219Z,100.00
2023-03-01T05:31:28.797Z,100.00
2023-03-01T05:33:56.055Z,100.00
2023-03-01T05:36:23.360Z,100.00
2023-03-01T05:38:50.593Z,100.00
2023-03-01T05:41:18.133Z,100.00
2023-03-01T05:43:46.169Z,100.00
2023-03-01T05:46:16.421Z,100.00
2023-03-01T05:48:43.802Z,100.00
2023-03-01T05:51:11.269Z,100.00
2023-03-01T05:53:38.457Z,100.00
2023-03-01T05:56:06.185Z,100.00
2023-03-01T05:58:33.546Z,100.00
2023-03-01T06:01:00.825Z,100.00
2023-03-01T06:03:28.182Z,100.00
2023-03-01T06:05:59.243Z,100.00
2023-03-01T06:08:28.299Z,100.00
2023-03-01T06:10:55.819Z,100.00
2023-03-01T06:13:24.607Z,100.00
2023-03-01T06:15:52.953Z,100.00
2023-03-01T06:18:20.356Z,100.00
2023-03-01T06:20:55.375Z,100.00
2023-03-01T06:23:24.188Z,100.00
2023-03-01T06:25:51.892Z,100.00
2023-03-01T06:28:19.122Z,100.00
2023-03-01T06:30:47.111Z,94.81
2023-03-01T06:33:15.152Z,87.50
2023-03-01T06:35:42.655Z,81.77
2023-03-01T06:38:10.485Z,78.27
2023-03-01T06:40:37.659Z,72.92
2023-03-01T06:43:05.354Z,72.49
2023-03-01T06:45:33.407Z,71.53
2023-03-01T06:48:08.378Z,70.39
2023-03-01T06:50:39.318Z,68.91
2023-03-01T06:53:06.761Z,65.33
2023-03-01T06:55:34.131Z,65.81
2023-03-01T06:58:03.056Z,62.78
2023-03-01T07:00:31.013Z,61.34
2023-03-01T07:03:03.571Z,63.28
2023-03-01T07:05:31.754Z,63.48
2023-03-01T07:07:59.124Z,68.52
2023-03-01T07:10:26.479Z,73.08
2023-03-01T07:13:00.673Z,70.93
2023-03-01T07:15:28.905Z,75.62
2023-03-01T07:17:57.358Z,76.12
2023-03-01T07:20:26.304Z,74.63
2023-03-01T07:22:55.848Z,73.66
2023-03-01T07:25:23.372Z,71.28
2023-03-01T07:27:53.469Z,73.74
2023-03-01T07:30:22.343Z,72.30
2023-03-01T07:32:49.858Z,70.05
2023-03-01T07:35:17.317Z,68.89
2023-03-01T07:37:45.078Z,67.91
2023-03-01T07:40:13.141Z,66.59
2023-03-01T07:42:40.440Z,64.04
2023-03-01T07:45:08.847Z,64.05
2023-03-01T07:47:36.176Z,57.27
2023-03-01T07:50:04.944Z,54.01
2023-03-01T07:52:32.192Z,49.66
2023-03-01T07:54:59.418Z,45.79
2023-03-01T07:57:26.724Z,44.76
2023-03-01T07:59:54.042Z,45.54
2023-03-01T08:02:21.251Z,46.49
2023-03-01T08:04:48.550Z,44.25
2023-03-01T08:07:15.693Z,43.14
2023-03-01T08:09:43.008Z,42.06
2023-03-01T08:12:10.136Z,39.93
2023-03-01T08:14:37.443Z,40.90
2023-03-01T08:17:04.699Z,37.77
2023-03-01T08:19:32.176Z,36.16
2023-03-01T08:22:00.929Z,36.69
2023-03-01T08:24:28.187Z,35.43
2023-03-01T08:26:55.813Z,34.70
2023-03-01T08:29:23.533Z,35.74
2023-03-01T08:31:51.002Z,36.81
2023-03-01T08:34:19.645Z,35.95
2023-03-01T08:36:47.793Z,33.71
2023-03-01T08:39:18.055Z,33.34
2023-03-01T08:41:47.082Z,35.16
2023-03-01T08:44:17.904Z,33.34
2023-03-01T08:46:46.654Z,32.74
2023-03-01T08:49:18.795Z,32.78
2023-03-01T08:51:47.557Z,33.54
2023-03-01T08:54:21.510Z,31.13
2023-03-01T08:56:49.856Z,29.41
2023-03-01T08:59:18.626Z,29.62
2023-03-01T09:01:46.459Z,29.65
2023-03-01T09:04:15.684Z,28.52
2023-03-01T09:06:43.164Z,28.23
2023-03-01T09:09:17.406Z,26.78
2023-03-01T09:11:47.373Z,27.56
2023-03-01T09:14:15.702Z,27.43
2023-03-01T09:16:43.717Z,29.28
2023-03-01T09:19:11.181Z,29.01
2023-03-01T09:21:41.149Z,26.90
2023-03-01T09:24:15.479Z,26.98
2023-03-01T09:26:44.047Z,28.70
2023-03-01T09:29:11.443Z,27.94
2023-03-01T09:31:39.651Z,26.61
2023-03-01T09:34:07.443Z,25.70
2023-03-01T09:36:35.152Z,27.01
2023-03-01T09:39:03.852Z,27.52
2023-03-01T09:41:49.877Z,26.76
2023-03-01T09:44:32.704Z,27.57
2023-03-01T09:47:01.029Z,27.08
2023-03-01T09:49:36.098Z,25.10
2023-03-01T09:52:26.708Z,24.21
2023-03-01T09:54:59.649Z,23.42
2023-03-01T09:57:41.970Z,24.58
2023-03-01T10:00:40.172Z,23.65
2023-03-01T10:03:29.335Z,23.79
2023-03-01T10:06:35.288Z,24.01
2023-03-01T10:09:15.163Z,23.98
2023-03-01T10:11:55.313Z,24.21
2023-03-01T10:14:48.397Z,24.07
2023-03-01T10:17:57.862Z,23.74
2023-03-01T10:20:46.006Z,25.62
2023-03-01T10:23:13.409Z,26.45
2023-03-01T10:26:12.958Z,24.78
2023-03-01T10:28:51.973Z,24.71
2023-03-01T10:31:29.671Z,24.86
2023-03-01T10:33:59.016Z,25.31
2023-03-01T10:36:26.287Z,26.12
2023-03-01T10:38:58.855Z,25.36
2023-03-01T10:41:28.622Z,25.35
2023-03-01T10:44:00.615Z,25.50
2023-03-01T10:46:33.592Z,24.63
2023-03-01T10:49:14.903Z,25.39
2023-03-01T10:51:45.928Z,26.51
2023-03-01T10:54:33.311Z,26.44
2023-03-01T10:57:06.490Z,26.06
2023-03-01T10:59:39.479Z,26.26
2023-03-01T11:02:29.802Z,26.58
2023-03-01T11:05:06.257Z,26.40
2023-03-01T11:07:49.356Z,26.84
2023-03-01T11:10:25.084Z,29.01
2023-03-01T11:12:54.455Z,28.06
2023-03-01T11:15:29.906Z,26.16
2023-03-01T11:18:08.889Z,24.89
2023-03-01T11:20:40.505Z,22.93
2023-03-01T11:23:14.024Z,22.86
2023-03-01T11:25:47.031Z,22.76
2023-03-01T11:28:19.148Z,22.28
2023-03-01T11:31:08.693Z,22.21
2023-03-01T11:34:06.218Z,22.72
2023-03-01T11:36:56.016Z,22.26
2023-03-01T11:39:39.043Z,22.23
2023-03-01T11:42:19.113Z,21.62
2023-03-01T11:44:51.619Z,21.96
2023-03-01T11:48:13.703Z,22.42
2023-03-01T11:50:49.371Z,23.74
2023-03-01T11:53:31.738Z,24.95
2023-03-01T11:56:28.622Z,26.18
2023-03-01T11:59:31.952Z,28.17
2023-03-01T12:02:27.167Z,29.12
2023-03-01T12:05:17.923Z,29.66
2023-03-01T12:07:54.183Z,28.81
2023-03-01T12:10:26.786Z,27.34
2023-03-01T12:13:19.575Z,27.97
2023-03-01T12:16:38.333Z,27.01
2023-03-01T12:19:46.797Z,28.49
2023-03-01T12:22:32.895Z,27.03
2023-03-01T12:25:19.654Z,27.55
2023-03-01T12:28:11.448Z,27.08
2023-03-01T12:31:38.582Z,26.98
2023-03-01T12:34:38.824Z,28.70
2023-03-01T12:37:48.681Z,29.26
2023-03-01T12:40:28.533Z,29.26
2023-03-01T12:43:16.667Z,29.37
2023-03-01T12:46:08.860Z,29.41
2023-03-01T12:48:53.419Z,29.53
2023-03-01T12:51:28.013Z,29.99
2023-03-01T12:53:58.145Z,30.67
2023-03-01T12:56:30.599Z,32.81
2023-03-01T12:59:26.619Z,31.52
2023-03-01T13:02:14.472Z,32.08
2023-03-01T13:05:06.251Z,31.81
2023-03-01T13:08:10.539Z,32.15
2023-03-01T13:10:58.695Z,31.90
2023-03-01T13:13:28.938Z,32.27
2023-03-01T13:15:57.721Z,33.93
2023-03-01T13:18:26.391Z,35.39
2023-03-01T13:21:00.520Z,34.90
2023-03-01T13:23:40.351Z,35.72
2023-03-01T13:26:19.588Z,35.76
2023-03-01T13:28:49.887Z,35.64
2023-03-01T13:31:16.933Z,35.98
2023-03-01T13:33:52.642Z,37.13
2023-03-01T13:36:29.151Z,36.73
2023-03-01T13:39:16.804Z,38.74
2023-03-01T13:41:43.955Z,39.75
2023-03-01T13:44:39.854Z,40.37
2023-03-01T13:47:07.245Z,39.44
2023-03-01T13:49:58.979Z,42.21
2023-03-01T13:53:19.445Z,44.34
2023-03-01T13:56:02.172Z,44.53
2023-03-01T13:58:33.517Z,44.50
2023-03-01T14:01:07.102Z,44.46
2023-03-01T14:03:42.844Z,44.84
2023-03-01T14:06:39.884Z,46.22
2023-03-01T14:09:22.587Z,47.33
2023-03-01T14:12:09.905Z,48.89
2023-03-01T14:15:05.967Z,50.20
2023-03-01T14:18:05.352Z,49.55
2023-03-01T14:20:41.300Z,49.27
2023-03-01T14:23:16.755Z,50.66
2023-03-01T14:25:59.004Z,50.00
2023-03-01T14:28:35.416Z,50.24
2023-03-01T14:31:03.667Z,49.67
2023-03-01T14:33:34.458Z,48.82
2023-03-01T14:36:06.494Z,48.96
2023-03-01T14:38:39.545Z,51.74
2023-03-01T14:41:16.886Z,49.71
2023-03-01T14:43:59.059Z,48.65
2023-03-01T14:46:34.129Z,49.93
2023-03-01T14:49:13.281Z,52.04
2023-03-01T14:51:44.030Z,48.86
2023-03-01T14:54:27.791Z,49.89
2023-03-01T14:57:00.876Z,50.43
2023-03-01T14:59:28.889Z,49.70
2023-03-01T15:01:59.255Z,50.76
2023-03-01T15:04:28.693Z,52.01
2023-03-01T15:07:05.740Z,49.98
2023-03-01T15:09:37.628Z,52.16
2023-03-01T15:12:37.056Z,50.01
2023-03-01T15:15:42.515Z,53.95
2023-03-01T15:18:28.607Z,54.40
2023-03-01T15:20:57.087Z,52.60
2023-03-01T15:23:30.952Z,53.04
2023-03-01T15:25:59.160Z,52.09
2023-03-01T15:28:38.644Z,51.74
2023-03-01T15:31:24.231Z,54.62
2023-03-01T15:33:52.449Z,57.90
2023-03-01T15:36:32.156Z,56.57
2023-03-01T15:39:01.318Z,55.71
2023-03-01T15:41:39.129Z,56.19
2023-03-01T15:44:35.035Z,54.81
2023-03-01T15:47:29.273Z,56.38
2023-03-01T15:49:58.325Z,57.71
2023-03-01T15:52:37.876Z,57.95
2023-03-01T15:55:16.644Z,61.73
2023-03-01T15:57:43.974Z,61.02
2023-03-01T16:00:14.471Z,58.31
2023-03-01T16:02:44.358Z,57.58
2023-03-01T16:05:28.297Z,56.91
2023-03-01T16:07:56.083Z,58.22
2023-03-01T16:10:24.131Z,61.99
2023-03-01T16:12:53.506Z,62.45
2023-03-01T16:15:31.764Z,63.15
2023-03-01T16:17:59.935Z,63.14
2023-03-01T16:20:30.954Z,66.22
2023-03-01T16:23:03.608Z,64.35
2023-03-01T16:25:31.309Z,67.54
2023-03-01T16:28:01.244Z,65.78
2023-03-01T16:30:28.809Z,67.93
2023-03-01T16:32:55.984Z,67.26
2023-03-01T16:35:24.497Z,70.88
2023-03-01T16:37:53.615Z,70.27
2023-03-01T16:40:28.294Z,68.00
2023-03-01T16:43:02.186Z,65.77
2023-03-01T16:45:36.791Z,64.92
2023-03-01T16:48:05.235Z,72.68
2023-03-01T16:50:32.513Z,69.32
2023-03-01T16:52:59.728Z,67.17
2023-03-01T16:55:27.033Z,73.52
2023-03-01T16:57:54.366Z,72.70
2023-03-01T17:00:23.569Z,72.23
2023-03-01T17:02:50.924Z,73.20
2023-03-01T17:05:18.566Z,69.91
2023-03-01T17:07:45.833Z,72.04
2023-03-01T17:10:13.236Z,73.59
2023-03-01T17:12:40.664Z,68.64
2023-03-01T17:15:08.429Z,71.82
2023-03-01T17:17:36.036Z,72.14
2023-03-01T17:20:05.010Z,77.30
2023-03-01T17:22:32.400Z,77.86
2023-03-01T17:24:59.970Z,75.14
2023-03-01T17:27:27.615Z,74.30
2023-03-01T17:29:54.911Z,75.32
2023-03-01T17:32:22.509Z,80.00
2023-03-01T17:34:49.782Z,76.17
2023-03-01T17:37:17.137Z,77.66
2023-03-01T17:39:44.413Z,78.68
2023-03-01T17:42:11.656Z,77.90
2023-03-01T17:44:39.120Z,74.59
2023-03-01T17:47:06.760Z,73.65
2023-03-01T17:49:34.528Z,77.16
2023-03-01T17:52:01.814Z,76.81
2023-03-01T17:54:29.167Z,77.11
2023-03-01T17:56:58.893Z,77.38
2023-03-01T17:59:31.365Z,78.06
2023-03-01T18:02:01.568Z,79.00
2023-03-01T18:04:30.149Z,79.22
2023-03-01T18:06:58.591Z,78.06
2023-03-01T18:09:28.381Z,72.70
2023-03-01T18:11:55.869Z,73.90
2023-03-01T18:14:23.604Z,72.46
2023-03-01T18:16:50.961Z,68.99
2023-03-01T18:19:18.690Z,71.21
2023-03-01T18:21:46.019Z,72.76
2023-03-01T18:24:13.474Z,74.23
2023-03-01T18:26:40.765Z,76.23
2023-03-01T18:29:08.385Z,75.00
2023-03-01T18:31:35.744Z,79.26
2023-03-01T18:34:03.843Z,75.88
2023-03-01T18:36:35.266Z,75.25
2023-03-01T18:39:05.608Z,75.51
2023-03-01T18:41:34.253Z,76.58
2023-03-01T18:44:03.768Z,77.78
2023-03-01T18:46:31.970Z,79.87
2023-03-01T18:48:59.815Z,77.35
2023-03-01T18:51:29.126Z,74.97
2023-03-01T18:54:00.976Z,77.32
2023-03-01T18:56:33.993Z,74.48
2023-03-01T18:59:02.528Z,78.90
2023-03-01T19:01:34.709Z,76.86
2023-03-01T19:04:04.753Z,78.01
2023-03-01T19:06:35.257Z,72.38
2023-03-01T19:09:03.362Z,73.19
2023-03-01T19:11:33.503Z,74.64
2023-03-01T19:14:02.537Z,76.34
2023-03-01T19:16:32.402Z,79.59
2023-03-01T19:19:03.317Z,80.91
2023-03-01T19:21:32.508Z,79.26
2023-03-01T19:24:02.507Z,79.25
2023-03-01T19:26:31.431Z,86.02
2023-03-01T19:28:59.249Z,83.78
2023-03-01T19:31:29.713Z,84.53
2023-03-01T19:34:10.964Z,85.93
2023-03-01T19:36:44.046Z,82.09
2023-03-01T19:39:14.007Z,83.82
2023-03-01T19:41:42.739Z,79.49
2023-03-01T19:44:10.452Z,78.11
2023-03-01T19:46:38.073Z,78.16
2023-03-01T19:49:06.377Z,79.16
2023-03-01T19:51:36.218Z,79.51
2023-03-01T19:54:05.996Z,76.89
2023-03-01T19:56:34.706Z,76.89
2023-03-01T19:59:04.499Z,81.33
2023-03-01T20:01:34.808Z,83.99
2023-03-01T20:04:03.834Z,83.61
2023-03-01T20:06:31.643Z,78.03
2023-03-01T20:09:02.376Z,77.18
2023-03-01T20:11:34.542Z,82.26
2023-03-01T20:14:02.319Z,84.02
2023-03-01T20:16:29.907Z,83.81
2023-03-01T20:19:00.615Z,79.64
2023-03-01T20:21:28.547Z,79.25
2023-03-01T20:23:55.897Z,77.93
2023-03-01T20:26:25.474Z,77.65
2023-03-01T20:28:57.255Z,78.99
2023-03-01T20:31:30.037Z,78.38
2023-03-01T20:33:59.135Z,79.80
2023-03-01T20:36:28.294Z,80.88
2023-03-01T20:38:56.287Z,80.03
2023-03-01T20:41:26.469Z,81.49
2023-03-01T20:43:58.743Z,80.01
2023-03-01T20:46:27.137Z,79.55
2023-03-01T20:48:54.602Z,80.33
2023-03-01T20:51:22.039Z,79.57
2023-03-01T20:53:49.552Z,80.01
2023-03-01T20:56:19.088Z,80.91
2023-03-01T20:59:04.519Z,81.74
2023-03-01T21:01:32.028Z,81.76
2023-03-01T21:03:59.295Z,81.97
2023-03-01T21:06:26.608Z,82.30
2023-03-01T21:08:56.052Z,81.94
2023-03-01T21:11:27.093Z,84.43
2023-03-01T21:13:55.705Z,84.17
2023-03-01T21:16:23.590Z,84.08
2023-03-01T21:18:51.200Z,84.29
2023-03-01T21:21:22.457Z,84.64
2023-03-01T21:23:49.905Z,86.10
2023-03-01T21:26:24.119Z,85.41
2023-03-01T21:28:59.175Z,88.18
2023-03-01T21:31:34.130Z,86.67
2023-03-01T21:34:05.871Z,88.09
2023-03-01T21:36:34.799Z,87.75
2023-03-01T21:39:02.995Z,88.37
2023-03-01T21:41:34.533Z,88.73
2023-03-01T21:44:03.801Z,89.13
2023-03-01T21:46:36.656Z,89.56
2023-03-01T21:49:05.250Z,89.62
2023-03-01T21:51:32.988Z,89.28
2023-03-01T21:54:03.749Z,89.20
2023-03-01T21:56:34.533Z,90.50
2023-03-01T21:59:02.206Z,91.29
2023-03-01T22:01:30.292Z,90.24
2023-03-01T22:04:00.340Z,89.99
2023-03-01T22:06:31.635Z,89.36
2023-03-01T22:09:05.954Z,90.53
2023-03-01T22:11:38.142Z,89.77
2023-03-01T22:14:06.323Z,90.39
2023-03-01T22:16:37.038Z,89.75
2023-03-01T22:19:06.424Z,91.56
2023-03-01T22:21:34.599Z,91.62
2023-03-01T22:24:02.271Z,91.18
2023-03-01T22:26:37.389Z,92.74
2023-03-01T22:29:12.416Z,94.47
2023-03-01T22:31:41.013Z,93.73
2023-03-01T22:34:08.796Z,94.75
2023-03-01T22:36:36.750Z,95.65
2023-03-01T22:39:04.448Z,96.15
2023-03-01T22:41:44.039Z,95.62
2023-03-01T22:44:18.658Z,94.35
2023-03-01T22:46:47.059Z,94.40
2023-03-01T22:49:14.598Z,95.09
2023-03-01T22:51:43.595Z,96.11
2023-03-01T22:54:11.643Z,94.34
2023-03-01T22:56:40.145Z,93.22
2023-03-01T22:59:11.088Z,93.66
2023-03-01T23:01:40.714Z,96.66
2023-03-01T23:04:08.632Z,96.18
2023-03-01T23:06:50.597Z,96.69
2023-03-01T23:09:20.874Z,96.33
2023-03-01T23:11:48.874Z,96.82
2023-03-01T23:14:16.465Z,97.13
2023-03-01T23:16:43.773Z,97.29
2023-03-01T23:19:11.078Z,97.53
2023-03-01T23:21:38.399Z,97.27
2023-03-01T23:24:06.096Z,98.24
2023-03-01T23:26:33.659Z,100.00
2023-03-01T23:29:01.145Z,100.00
2023-03-01T23:31:30.193Z,100.00
2023-03-01T23:33:57.733Z,100.00
2023-03-01T23:36:34.407Z,100.00
2023-03-01T23:39:06.850Z,100.00
2023-03-01T23:41:35.359Z,100.00
2023-03-01T23:44:05.221Z,100.00
2023-03-01T23:46:36.150Z,100.00
2023-03-01T23:49:04.705Z,100.00
2023-03-01T23:51:32.105Z,100.00
2023-03-01T23:54:05.481Z,100.00
2023-03-01T23:56:36.763Z,100.00
2023-03-01T23:59:19.764Z,100.00
